Time;durP1;ratioP1;P1;durP2;ratioP2;P2;SDS_P1;SDS_P2;PMS_P1;PMS_P2;Temp;Humidity;BMP_temperature;BMP_pressure;BME280_temperature;BME280_humidity;BME280_pressure;Samples;Min_cycle;Max_cycle;Signal;HPM_P1;HPM_P2
2023/09/04 00:02:02;;;;;;;;;4.00;4.00;;;;;24.24;61.24;101862.13;5086508;27;45449;-71
2023/09/04 00:04:27;;;;;;;;;4.50;4.50;;;;;24.21;60.86;101848.94;5113999;27;45323;-71
2023/09/04 00:06:53;;;;;;;;;3.00;3.00;;;;;24.17;61.26;101855.84;5117815;27;46246;-72
2023/09/04 00:09:18;;;;;;;;;4.00;4.00;;;;;24.18;61.52;101852.91;5117244;27;45407;-70
2023/09/04 00:11:44;;;;;;;;;5.25;4.75;;;;;24.10;60.94;101841.41;5121517;27;46383;-71
2023/09/04 00:14:09;;;;;;;;;4.25;4.00;;;;;24.06;61.35;101842.88;5121841;27;45311;-72
2023/09/04 00:16:34;;;;;;;;;4.50;4.50;;;;;23.94;61.39;101827.16;5119802;27;45339;-70
2023/09/04 00:19:00;;;;;;;;;4.50;4.25;;;;;24.00;61.31;101832.81;5120092;27;65635;-70
2023/09/04 00:21:25;;;;;;;;;4.50;4.50;;;;;24.07;61.88;101833.69;5120309;27;66454;-71
2023/09/04 00:23:51;;;;;;;;;4.75;4.75;;;;;23.90;61.24;101811.50;5119718;27;45528;-71
2023/09/04 00:26:16;;;;;;;;;6.75;6.00;;;;;24.05;61.65;101830.34;5120871;27;48515;-70
2023/09/04 00:28:42;;;;;;;;;7.00;5.50;;;;;23.94;61.68;101819.03;5121268;27;45284;-70
2023/09/04 00:31:07;;;;;;;;;5.25;5.25;;;;;23.97;61.83;101829.47;5102365;27;45175;-70
2023/09/04 00:33:33;;;;;;;;;5.00;5.00;;;;;23.96;61.57;101822.38;5102352;27;45261;-72
2023/09/04 00:35:58;;;;;;;;;6.50;6.50;;;;;23.93;61.48;101828.22;5102268;27;48293;-71
2023/09/04 00:38:23;;;;;;;;;5.00;5.00;;;;;23.85;62.06;101822.97;5121026;27;45486;-69
2023/09/04 00:40:49;;;;;;;;;4.00;4.00;;;;;23.82;61.68;101820.66;5119549;27;45280;-70
2023/09/04 00:43:14;;;;;;;;;5.00;5.00;;;;;23.82;62.46;101822.53;5102263;27;45480;-72
2023/09/04 00:45:43;;;;;;;;;3.75;3.75;;;;;23.79;61.90;101822.94;5101840;27;47298;-70
2023/09/04 00:48:08;;;;;;;;;4.00;4.00;;;;;23.52;62.04;101786.72;5120449;27;45369;-71
2023/09/04 00:50:35;;;;;;;;;5.25;5.25;;;;;23.61;61.93;101808.06;5120667;27;45319;-70
2023/09/04 00:53:04;;;;;;;;;4.50;4.50;;;;;23.76;62.21;101821.47;5120637;27;45308;-71
2023/09/04 00:55:30;;;;;;;;;5.25;4.75;;;;;23.76;61.93;101817.94;5120278;27;46825;-70
2023/09/04 00:57:55;;;;;;;;;4.25;4.25;;;;;23.73;62.12;101819.19;5120570;27;45369;-70
2023/09/04 01:00:22;;;;;;;;;5.75;4.50;;;;;23.77;61.61;101825.03;5120565;27;45305;-71
2023/09/04 01:02:48;;;;;;;;;4.25;4.25;;;;;23.57;61.82;101800.53;5120742;27;45241;-71
2023/09/04 01:05:14;;;;;;;;;3.25;3.25;;;;;23.65;62.22;101814.78;5099204;27;46476;-70
2023/09/04 01:07:43;;;;;;;;;2.75;2.75;;;;;23.67;62.13;101828.16;5108746;27;45458;-70
2023/09/04 01:10:10;;;;;;;;;5.00;5.00;;;;;23.61;61.77;101813.50;5099644;27;45329;-70
2023/09/04 01:12:40;;;;;;;;;3.50;3.50;;;;;23.45;61.92;101781.28;5081466;27;46008;-69
2023/09/04 01:15:06;;;;;;;;;6.00;5.00;;;;;23.48;61.65;101785.47;5099242;27;46325;-69
2023/09/04 01:17:32;;;;;;;;;4.25;4.25;;;;;23.70;61.53;101825.03;5099178;27;45314;-70
2023/09/04 01:19:58;;;;;;;;;4.00;3.50;;;;;23.51;61.97;101790.47;5080624;27;45311;-72
2023/09/04 01:22:24;;;;;;;;;6.50;5.25;;;;;23.67;61.50;101812.69;5099281;27;45502;-71
2023/09/04 01:24:50;;;;;;;;;4.75;4.75;;;;;23.75;61.27;101814.38;5099141;27;46559;-70
2023/09/04 01:27:27;;;;;;;;;5.75;5.75;;;;;23.59;61.40;101793.03;5099334;27;45330;-73
2023/09/04 01:29:55;;;;;;;;;5.00;3.25;;;;;23.69;61.31;101809.78;5099594;27;45303;-71
2023/09/04 01:32:28;;;;;;;;;5.00;5.00;;;;;23.59;61.39;101803.88;5099715;27;45327;-70
2023/09/04 01:34:55;;;;;;;;;6.00;5.00;;;;;23.42;61.97;101780.81;5098687;27;45342;-70
2023/09/04 01:37:22;;;;;;;;;4.75;4.75;;;;;23.42;61.79;101784.38;5099203;27;45271;-70
2023/09/04 01:39:48;;;;;;;;;4.25;4.25;;;;;23.31;61.73;101780.38;5099252;27;45377;-70
2023/09/04 01:42:14;;;;;;;;;4.00;4.00;;;;;23.49;62.22;101798.00;5099474;27;45469;-71
2023/09/04 01:44:41;;;;;;;;;5.75;4.50;;;;;23.51;61.99;101795.91;5098905;27;46584;-71
2023/09/04 01:47:07;;;;;;;;;5.00;5.00;;;;;23.45;62.29;101796.72;5099000;27;45390;-70
2023/09/04 01:49:33;;;;;;;;;5.00;5.00;;;;;23.37;61.96;101789.59;5098866;27;45313;-70
2023/09/04 01:52:00;;;;;;;;;5.00;5.00;;;;;23.46;62.31;101798.41;5098618;27;54082;-71
2023/09/04 01:54:25;;;;;;;;;6.00;6.00;;;;;23.24;62.26;101751.56;5098637;27;45648;-70
2023/09/04 01:56:51;;;;;;;;;8.50;7.50;;;;;23.22;61.91;101759.88;5080205;27;45282;-71
2023/09/04 01:59:16;;;;;;;;;5.00;5.00;;;;;23.38;61.92;101783.09;5099141;27;45166;-71
2023/09/04 02:01:41;;;;;;;;;3.75;3.75;;;;;23.33;62.28;101777.47;5098301;27;55106;-71
2023/09/04 02:04:07;;;;;;;;;3.25;3.25;;;;;23.34;62.54;101790.81;5097433;27;64546;-69
2023/09/04 02:06:32;;;;;;;;;7.75;6.50;;;;;23.23;62.24;101766.16;5098502;27;45462;-69
2023/09/04 02:08:57;;;;;;;;;4.00;4.00;;;;;23.22;62.33;101765.31;5098558;27;45275;-71
2023/09/04 02:11:23;;;;;;;;;4.00;4.00;;;;;23.08;62.65;101739.19;5098849;27;45311;-70
2023/09/04 02:13:49;;;;;;;;;5.00;5.00;;;;;23.21;62.51;101760.91;5098344;27;46060;-70
2023/09/04 02:16:15;;;;;;;;;5.25;4.00;;;;;23.19;62.38;101754.84;5098326;27;45440;-72
2023/09/04 02:18:40;;;;;;;;;5.00;5.00;;;;;23.03;62.54;101738.97;5098157;27;45316;-70
2023/09/04 02:21:06;;;;;;;;;6.00;6.00;;;;;23.16;62.87;101752.56;5098456;27;45597;-71
2023/09/04 02:23:32;;;;;;;;;7.00;6.50;;;;;23.14;62.65;101751.09;5098138;27;45317;-70
2023/09/04 02:25:57;;;;;;;;;6.00;6.00;;;;;23.12;63.05;101747.75;5099774;27;45410;-71
2023/09/04 02:28:22;;;;;;;;;5.50;5.50;;;;;23.13;62.51;101744.00;5108012;27;45341;-71
2023/09/04 02:30:48;;;;;;;;;5.25;5.25;;;;;23.08;62.37;101741.06;5098471;27;45410;-70
2023/09/04 02:33:13;;;;;;;;;7.75;4.25;;;;;22.87;62.69;101702.16;5097240;27;46704;-70
2023/09/04 02:35:38;;;;;;;;;4.25;4.25;;;;;22.99;62.17;101727.66;5098079;27;45325;-70
2023/09/04 02:38:04;;;;;;;;;7.00;6.00;;;;;23.12;62.42;101743.16;5098069;27;45524;-70
2023/09/04 02:40:29;;;;;;;;;4.50;4.50;;;;;22.99;62.52;101726.81;5098466;27;45427;-70
2023/09/04 02:42:55;;;;;;;;;6.00;6.00;;;;;22.68;62.40;101687.44;5097742;27;46958;-70
2023/09/04 02:45:20;;;;;;;;;5.67;5.00;;;;;23.00;62.64;101740.16;5097872;27;45490;-70
2023/09/04 02:47:46;;;;;;;;;4.00;4.00;;;;;22.97;62.66;101734.31;5098004;27;45189;-71
2023/09/04 02:50:11;;;;;;;;;5.00;4.50;;;;;22.97;62.54;101734.31;5098190;27;45247;-70
2023/09/04 02:52:37;;;;;;;;;4.25;4.25;;;;;22.95;62.38;101736.41;5097881;27;45586;-71
2023/09/04 02:55:04;;;;;;;;;6.67;6.00;;;;;22.93;62.86;101723.03;5097667;27;45347;-69
2023/09/04 02:57:33;;;;;;;;;5.50;5.50;;;;;22.91;62.62;101721.56;5079672;27;45513;-70
2023/09/04 02:59:59;;;;;;;;;6.75;6.75;;;;;22.78;62.77;101701.44;5097935;27;45259;-71
2023/09/04 03:02:25;;;;;;;;;6.00;6.00;;;;;22.70;62.54;101693.50;5097445;27;46891;-70
2023/09/04 03:04:56;;;;;;;;;5.25;5.25;;;;;22.85;62.61;101722.38;5097518;27;45442;-70
2023/09/04 03:07:25;;;;;;;;;6.00;6.00;;;;;22.76;62.47;101719.78;5097830;27;45513;-70
2023/09/04 03:09:55;;;;;;;;;4.25;4.25;;;;;22.85;62.95;101735.94;5097795;27;45628;-70
2023/09/04 03:12:21;;;;;;;;;4.00;4.00;;;;;22.62;62.95;101699.06;5097837;27;45389;-71
2023/09/04 03:14:52;;;;;;;;;5.33;5.33;;;;;22.56;62.70;101683.59;5079198;27;45536;-70
2023/09/04 03:17:17;;;;;;;;;5.50;5.50;;;;;22.84;63.04;101742.41;5097884;27;45447;-70
2023/09/04 03:19:43;;;;;;;;;7.25;5.00;;;;;22.65;62.83;101712.25;5079242;27;45693;-69
2023/09/04 03:22:08;;;;;;;;;4.67;4.67;;;;;22.59;62.98;101709.47;5097306;27;45475;-70
2023/09/04 03:24:33;;;;;;;;;7.00;5.00;;;;;22.51;63.11;101694.22;5097281;27;45467;-70
2023/09/04 03:26:59;;;;;;;;;6.75;5.75;;;;;22.66;63.46;101727.47;5097728;27;45359;-70
2023/09/04 03:29:24;;;;;;;;;8.25;7.00;;;;;22.33;63.18;101681.19;5097895;27;45403;-71
2023/09/04 03:31:49;;;;;;;;;5.25;5.25;;;;;22.46;63.15;101694.81;5097128;27;57193;-69
2023/09/04 03:34:15;;;;;;;;;6.00;6.00;;;;;22.36;63.03;101688.06;5079084;27;46157;-70
2023/09/04 03:36:40;;;;;;;;;5.67;5.00;;;;;22.55;63.55;101717.16;5079242;27;45531;-70
2023/09/04 03:39:06;;;;;;;;;4.25;4.25;;;;;22.46;63.49;101699.41;5097365;27;49732;-70
2023/09/04 03:41:32;;;;;;;;;4.00;4.00;;;;;22.55;63.08;101709.03;5097223;27;45682;-70
2023/09/04 03:43:57;;;;;;;;;5.00;5.00;;;;;22.55;63.30;101709.03;5097434;27;45425;-70
2023/09/04 03:46:23;;;;;;;;;6.75;5.50;;;;;22.23;63.40;101660.91;5101300;27;45573;-69
2023/09/04 03:48:48;;;;;;;;;7.50;6.00;;;;;22.51;62.86;101702.34;5101034;27;45514;-70
2023/09/04 03:51:13;;;;;;;;;4.75;4.75;;;;;22.45;62.97;101697.72;5100626;27;45452;-70
2023/09/04 03:53:39;;;;;;;;;6.00;6.00;;;;;22.27;63.16;101689.28;5102373;27;45411;-72
2023/09/04 03:56:05;;;;;;;;;5.33;4.33;;;;;22.45;62.90;101708.56;5100930;27;45238;-71
2023/09/04 03:58:31;;;;;;;;;8.33;6.67;;;;;22.49;62.91;101731.53;5100807;27;45295;-71
2023/09/04 04:00:57;;;;;;;;;8.00;5.00;;;;;22.43;63.13;101722.31;5100706;27;46579;-69
2023/09/04 04:03:22;;;;;;;;;6.50;6.50;;;;;22.43;63.37;101733.16;5099960;27;45383;-70
2023/09/04 04:05:48;;;;;;;;;5.50;5.50;;;;;22.39;63.64;101728.31;5081916;27;48985;-71
2023/09/04 04:08:13;;;;;;;;;6.00;6.00;;;;;22.26;63.23;101698.44;5082514;27;45186;-70
2023/09/04 04:10:39;;;;;;;;;6.00;6.00;;;;;22.04;63.18;101655.16;5099789;27;61267;-70
2023/09/04 04:13:04;;;;;;;;;6.67;5.67;;;;;22.29;63.10;101704.28;5100425;27;45473;-70
2023/09/04 04:15:30;;;;;;;;;6.00;6.00;;;;;22.34;63.28;101717.25;5100092;27;45461;-69
2023/09/04 04:17:55;;;;;;;;;7.00;6.00;;;;;22.36;63.01;101715.16;5082488;27;45489;-70
2023/09/04 04:20:20;;;;;;;;;8.25;8.00;;;;;22.17;62.88;101690.44;5100008;27;45666;-69
2023/09/04 04:22:46;;;;;;;;;8.00;8.00;;;;;22.03;63.22;101661.59;5100007;27;45371;-70
2023/09/04 04:25:11;;;;;;;;;8.00;6.67;;;;;21.94;63.19;101637.53;5100172;27;45479;-72
2023/09/04 04:27:38;;;;;;;;;6.25;6.25;;;;;22.26;63.55;101714.69;5100557;27;45415;-71
2023/09/04 04:30:04;;;;;;;;;7.25;7.00;;;;;22.17;63.37;101698.56;5105754;27;45758;-70
2023/09/04 04:32:30;;;;;;;;;7.25;7.00;;;;;21.84;63.08;101651.44;5120627;27;45478;-68
2023/09/04 04:34:55;;;;;;;;;9.00;8.00;;;;;21.27;63.05;101557.69;5120478;27;45598;-70
2023/09/04 04:37:20;;;;;;;;;9.00;8.67;;;;;22.15;63.61;101713.34;5102602;27;45264;-71
2023/09/04 04:39:46;;;;;;;;;8.00;8.00;;;;;22.05;63.38;101697.44;5120552;27;45675;-70
2023/09/04 04:42:11;;;;;;;;;8.00;7.67;;;;;21.95;63.54;101693.38;5120447;27;45998;-70
2023/09/04 04:44:37;;;;;;;;;8.33;7.67;;;;;21.70;63.45;101655.06;5120597;27;45470;-69
2023/09/04 04:47:02;;;;;;;;;8.50;7.00;;;;;22.05;63.66;101713.69;5121129;27;45395;-71
2023/09/04 04:49:28;;;;;;;;;7.75;6.75;;;;;22.01;63.46;101690.69;5120065;27;45852;-70
2023/09/04 04:51:54;;;;;;;;;13.00;9.75;;;;;21.83;63.78;101671.41;5118679;27;45376;-71
2023/09/04 04:54:20;;;;;;;;;8.25;7.75;;;;;22.05;63.32;101715.56;5111341;27;45497;-69
2023/09/04 04:56:48;;;;;;;;;8.25;7.00;;;;;21.83;63.60;101693.91;5080878;27;45501;-73
2023/09/04 04:59:14;;;;;;;;;8.33;8.33;;;;;21.97;63.73;101721.06;5115823;27;46744;-70
2023/09/04 05:01:39;;;;;;;;;8.33;8.33;;;;;21.80;63.98;101688.03;5120365;27;45374;-70
2023/09/04 05:04:04;;;;;;;;;10.00;8.75;;;;;21.85;63.90;101708.09;5119848;27;45769;-71
2023/09/04 05:06:30;;;;;;;;;7.33;7.33;;;;;21.88;63.84;101716.84;5120666;27;45319;-69
2023/09/04 05:08:55;;;;;;;;;8.67;7.67;;;;;21.74;64.08;101695.06;5102199;27;69487;-72
2023/09/04 05:11:20;;;;;;;;;10.50;8.75;;;;;21.74;64.05;101705.03;5098885;27;58101;-71
2023/09/04 05:13:46;;;;;;;;;8.50;8.50;;;;;21.55;64.42;101669.47;5100482;27;45337;-70
2023/09/04 05:16:11;;;;;;;;;7.33;7.33;;;;;21.79;64.34;101710.72;5101124;27;45311;-70
2023/09/04 05:18:36;;;;;;;;;12.00;10.00;;;;;21.80;64.35;101710.50;5119848;27;45503;-71
2023/09/04 05:21:06;;;;;;;;;7.00;7.00;;;;;21.74;64.21;101713.16;5120065;27;45497;-72
2023/09/04 05:23:35;;;;;;;;;12.00;8.50;;;;;21.67;64.29;101706.88;5119611;27;45319;-70
2023/09/04 05:26:00;;;;;;;;;8.00;8.00;;;;;21.82;63.80;101724.72;5102316;27;45324;-71
2023/09/04 05:28:26;;;;;;;;;8.00;8.00;;;;;21.03;63.75;101582.38;5099193;27;45518;-71
2023/09/04 05:30:51;;;;;;;;;11.25;8.50;;;;;21.79;63.73;101730.50;5098910;27;45367;-70
2023/09/04 05:33:16;;;;;;;;;8.50;8.50;;;;;21.82;63.90;101734.69;5098714;27;45469;-70
2023/09/04 05:35:42;;;;;;;;;9.33;9.33;;;;;21.74;63.67;101710.47;5099552;27;45478;-72
2023/09/04 05:38:07;;;;;;;;;8.75;7.25;;;;;21.75;63.67;101718.38;5098862;27;46044;-70
2023/09/04 05:40:32;;;;;;;;;7.33;7.33;;;;;21.74;63.77;101715.88;5098974;27;45446;-70
2023/09/04 05:42:58;;;;;;;;;8.00;8.00;;;;;21.47;63.94;101690.44;5106133;27;45374;-70
2023/09/04 05:45:24;;;;;;;;;7.67;7.67;;;;;21.63;63.93;101713.69;5090847;27;45514;-73
2023/09/04 05:47:49;;;;;;;;;10.33;9.00;;;;;21.68;63.60;101732.91;5098856;27;45561;-72
2023/09/04 05:50:15;;;;;;;;;8.00;8.00;;;;;21.66;64.19;101729.56;5101056;27;45472;-70
2023/09/04 05:52:40;;;;;;;;;7.67;7.67;;;;;21.51;64.10;101706.09;5119624;27;45529;-73
2023/09/04 05:55:06;;;;;;;;;9.00;7.67;;;;;21.67;64.11;101720.41;5116014;27;45368;-71
2023/09/04 05:57:32;;;;;;;;;8.00;6.75;;;;;21.44;63.42;101678.13;5096101;27;48142;-71
2023/09/04 05:59:58;;;;;;;;;4.75;4.75;;;;;21.64;63.37;101707.25;5103893;27;45909;-73
2023/09/04 06:02:23;;;;;;;;;9.00;8.25;;;;;21.74;63.47;101724.84;5120035;27;45366;-75
2023/09/04 06:04:48;;;;;;;;;11.33;9.67;;;;;21.33;63.77;101666.97;5119345;27;45419;-77
2023/09/04 06:07:15;;;;;;;;;8.00;8.00;;;;;21.74;63.80;101729.41;5117909;27;45994;-73
2023/09/04 06:09:42;;;;;;;;;10.25;7.75;;;;;21.70;63.71;101733.53;5118932;27;45292;-78
2023/09/04 06:12:11;;;;;;;;;12.25;12.25;;;;;21.66;63.43;101730.38;5118800;27;45240;-71
2023/09/04 06:14:40;;;;;;;;;9.00;7.67;;;;;21.56;64.00;101727.16;5119399;27;45444;-71
2023/09/04 06:17:05;;;;;;;;;10.75;10.75;;;;;21.67;64.08;101731.22;5116491;27;46739;-70
2023/09/04 06:19:31;;;;;;;;;7.50;7.50;;;;;21.70;63.25;101709.19;5117628;27;45314;-69
2023/09/04 06:21:59;;;;;;;;;11.25;9.00;;;;;21.84;63.38;101724.53;5118523;27;45488;-73
2023/09/04 06:24:25;;;;;;;;;8.00;8.00;;;;;;;;5118219;27;45555;-72
2023/09/04 06:26:51;;;;;;;;;8.50;8.00;;;;;22.31;61.56;101733.91;5117553;27;45362;-72
2023/09/04 06:29:17;;;;;;;;;8.75;7.50;;;;;22.56;60.75;101724.25;5118445;27;45378;-71
2023/09/04 06:31:43;;;;;;;;;8.00;7.00;;;;;22.98;60.24;101725.13;5118637;27;45454;-71
2023/09/04 06:34:08;;;;;;;;;9.25;8.25;;;;;23.36;58.99;101725.50;5118728;27;45389;-73
2023/09/04 06:36:34;;;;;;;;;8.00;6.00;;;;;23.74;57.93;101719.56;5118610;27;46722;-73
2023/09/04 06:38:59;;;;;;;;;10.00;9.33;;;;;23.78;56.18;101664.63;5099950;27;45352;-71
2023/09/04 06:41:24;;;;;;;;;5.75;5.50;;;;;24.49;55.27;101732.72;5118867;27;45769;-71
2023/09/04 06:43:50;;;;;;;;;9.00;7.25;;;;;24.81;54.58;101711.09;5118688;27;45486;-73
2023/09/04 06:46:15;;;;;;;;;9.00;8.00;;;;;25.20;53.28;101721.00;5118363;27;45456;-71
2023/09/04 06:48:40;;;;;;;;;10.50;9.50;;;;;25.21;52.57;101683.75;5118337;27;45339;-70
2023/09/04 06:51:06;;;;;;;;;8.50;6.75;;;;;25.91;51.82;101739.03;5099934;27;45336;-69
2023/09/04 06:53:31;;;;;;;;;6.00;6.00;;;;;26.21;50.68;101718.22;5099289;27;45516;-70
2023/09/04 06:55:57;;;;;;;;;7.00;7.00;;;;;26.41;49.82;101689.97;5117862;27;45557;-70
2023/09/04 06:58:24;;;;;;;;;5.00;3.75;;;;;27.01;49.75;101720.16;5099697;27;45467;-68
2023/09/04 07:00:54;;;;;;;;;9.50;9.25;;;;;27.25;47.25;101698.22;5100092;27;45477;-71
2023/09/04 07:03:20;;;;;;;;;8.75;8.00;;;;;27.33;46.42;101672.47;5118490;27;45445;-71
2023/09/04 07:05:46;;;;;;;;;9.25;6.25;;;;;27.81;47.09;101728.91;5118048;27;46546;-71
2023/09/04 07:08:11;;;;;;;;;6.75;6.75;;;;;27.67;45.75;101675.56;5099630;27;45492;-69
2023/09/04 07:10:36;;;;;;;;;8.75;8.00;;;;;28.06;45.10;101702.22;5118512;27;45303;-71
2023/09/04 07:13:02;;;;;;;;;11.50;9.25;;;;;28.25;44.78;101732.19;5118197;27;45481;-72
2023/09/04 07:15:28;;;;;;;;;7.50;7.50;;;;;28.33;44.34;101715.44;5118564;27;46368;-73
2023/09/04 07:17:54;;;;;;;;;8.00;7.67;;;;;28.52;43.56;101711.50;5118245;27;45228;-74
2023/09/04 07:20:19;;;;;;;;;8.00;7.00;;;;;28.81;44.41;101711.56;5116704;27;45470;-72
2023/09/04 07:22:44;;;;;;;;;7.50;7.50;;;;;29.10;43.76;101724.25;5117765;27;45248;-73
2023/09/04 07:25:11;;;;;;;;;9.00;8.00;;;;;29.23;42.06;101717.66;5110485;27;45733;-70
2023/09/04 07:27:36;;;;;;;;;8.33;8.00;;;;;29.42;42.78;101718.28;5097155;27;45301;-73
2023/09/04 07:30:03;;;;;;;;;9.00;8.00;;;;;29.63;42.08;101714.88;5097138;27;45350;-72
2023/09/04 07:32:29;;;;;;;;;8.00;7.00;;;;;29.80;41.69;101699.25;5095780;27;45414;-74
2023/09/04 07:34:56;;;;;;;;;13.67;11.00;;;;;29.79;40.50;101697.59;5090977;27;45415;-72
2023/09/04 07:37:25;;;;;;;;;8.33;8.33;;;;;29.87;41.26;101712.81;5100364;27;45526;-71
2023/09/04 07:39:52;;;;;;;;;8.00;8.00;;;;;29.60;41.16;101649.59;5095471;27;45521;-72
2023/09/04 07:42:17;;;;;;;;;10.67;8.33;;;;;30.15;40.16;101711.91;5091635;27;45561;-71
2023/09/04 07:44:43;;;;;;;;;8.00;8.00;;;;;30.39;40.16;101713.38;5087165;27;47113;-74
2023/09/04 07:47:09;;;;;;;;;10.33;8.33;;;;;30.43;39.11;101694.47;5111615;27;45477;-71
2023/09/04 07:49:35;;;;;;;;;9.33;7.67;;;;;30.48;39.10;101670.72;5100860;27;45370;-72
2023/09/04 07:52:00;;;;;;;;;9.67;7.67;;;;;30.97;38.66;101713.91;5091539;27;45577;-69
2023/09/04 07:54:26;;;;;;;;;10.00;8.00;;;;;30.99;38.02;101659.53;5081956;27;47836;-70
2023/09/04 07:56:51;;;;;;;;;8.33;8.33;;;;;31.65;37.21;101699.53;5100452;27;45420;-72
2023/09/04 07:59:16;;;;;;;;;8.00;8.00;;;;;31.89;36.64;101688.22;5099744;27;45497;-73
2023/09/04 08:01:41;;;;;;;;;9.33;8.33;;;;;32.13;36.14;101678.47;5098767;27;46777;-70
2023/09/04 08:04:07;;;;;;;;;6.33;6.33;;;;;32.16;35.63;101655.94;5098875;27;46577;-70
2023/09/04 08:06:32;;;;;;;;;9.00;7.00;;;;;32.59;35.49;101703.53;5106815;27;45583;-69
2023/09/04 08:08:58;;;;;;;;;8.33;8.33;;;;;32.42;35.23;101661.59;5097377;27;45504;-70
2023/09/04 08:11:23;;;;;;;;;6.33;6.00;;;;;32.80;34.91;101694.28;5098970;27;45447;-72
2023/09/04 08:13:48;;;;;;;;;10.33;7.33;;;;;32.77;35.43;101681.03;5102162;27;45970;-70
2023/09/04 08:16:14;;;;;;;;;7.00;6.00;;;;;32.99;34.44;101697.38;5104673;27;45506;-70
2023/09/04 08:18:39;;;;;;;;;6.75;5.50;;;;;33.18;34.75;101689.44;5108226;27;45886;-72
2023/09/04 08:21:05;;;;;;;;;7.67;7.67;;;;;33.45;34.24;101697.53;5095597;27;45594;-70
2023/09/04 08:23:30;;;;;;;;;14.67;9.67;;;;;33.51;33.75;101685.41;5082650;27;45597;-70
2023/09/04 08:26:03;;;;;;;;;7.00;7.00;;;;;32.97;34.01;101677.53;5076290;27;45501;-68
2023/09/04 08:28:29;;;;;;;;;9.00;8.00;;;;;32.86;34.45;101686.88;5076498;27;45554;-70
2023/09/04 08:30:55;;;;;;;;;7.33;7.33;;;;;32.61;35.05;101654.53;5076738;27;45566;-69
2023/09/04 08:33:21;;;;;;;;;7.33;7.33;;;;;32.84;34.50;101648.59;5079265;27;45967;-69
2023/09/04 08:35:46;;;;;;;;;7.67;7.67;;;;;33.28;33.87;101679.28;5079131;27;45513;-70
2023/09/04 08:38:11;;;;;;;;;8.00;8.00;;;;;33.34;33.77;101630.53;5081948;27;45994;-70
2023/09/04 08:40:42;;;;;;;;;12.00;10.67;;;;;33.89;33.46;101678.53;5078302;27;45501;-71
2023/09/04 08:43:08;;;;;;;;;8.33;7.00;;;;;33.91;32.62;101681.00;5061212;27;47974;-71
2023/09/04 08:45:35;;;;;;;;;7.67;6.67;;;;;34.03;33.12;101671.31;5091250;27;45550;-72
2023/09/04 08:48:06;;;;;;;;;7.00;6.67;;;;;34.23;32.77;101672.38;5088715;27;45396;-70
2023/09/04 08:50:31;;;;;;;;;9.67;6.00;;;;;34.24;32.44;101683.16;5084912;27;45473;-69
2023/09/04 08:52:57;;;;;;;;;10.00;5.67;;;;;34.40;32.53;101662.69;5077249;27;46662;-70
2023/09/04 08:55:22;;;;;;;;;9.33;7.67;;;;;34.66;31.53;101659.84;5080638;27;45655;-70
2023/09/04 08:57:48;;;;;;;;;5.00;5.00;;;;;34.53;32.29;101655.75;5085688;27;46261;-71
2023/09/04 09:00:15;;;;;;;;;6.33;6.33;;;;;34.56;32.14;101643.31;5086334;27;45466;-71
2023/09/04 09:02:44;;;;;;;;;7.33;6.00;;;;;34.83;31.08;101640.94;5077181;27;45691;-68
2023/09/04 09:05:13;;;;;;;;;7.00;7.00;;;;;35.14;31.11;101660.97;5076984;27;45364;-70
2023/09/04 09:07:39;;;;;;;;;5.33;5.33;;;;;35.40;31.31;101635.94;5086601;27;45309;-70
2023/09/04 09:10:08;;;;;;;;;9.00;9.00;;;;;35.94;30.34;101647.63;5077984;27;45544;-71
2023/09/04 09:12:34;;;;;;;;;6.00;6.00;;;;;36.59;29.60;101651.91;5077682;27;46746;-69
2023/09/04 09:14:59;;;;;;;;;8.67;8.33;;;;;37.31;28.82;101641.50;5085017;27;45444;-69
2023/09/04 09:17:25;;;;;;;;;11.33;8.33;;;;;38.14;27.61;101659.19;5077462;27;45372;-70
2023/09/04 09:19:51;;;;;;;;;6.00;6.00;;;;;38.41;26.79;101622.25;5077622;27;45553;-69
2023/09/04 09:22:18;;;;;;;;;8.00;7.00;;;;;39.24;26.20;101659.88;5083940;27;45885;-70
2023/09/04 09:24:50;;;;;;;;;7.33;5.00;;;;;40.09;24.88;101646.88;5097259;27;45458;-70
2023/09/04 09:27:18;;;;;;;;;7.67;6.00;;;;;40.85;23.15;101641.03;5098060;27;45504;-70
2023/09/04 09:29:44;;;;;;;;;6.00;6.00;;;;;41.26;22.64;101635.81;5094303;27;45750;-72
2023/09/04 09:32:10;;;;;;;;;7.00;7.00;;;;;41.02;22.76;101636.28;5098597;27;45782;-70
2023/09/04 09:34:35;;;;;;;;;5.00;5.00;;;;;41.39;22.51;101621.97;5099228;27;45499;-70
2023/09/04 09:37:01;;;;;;;;;7.00;7.00;;;;;42.06;22.74;101630.50;5102338;27;45908;-71
2023/09/04 09:39:29;;;;;;;;;6.33;6.33;;;;;42.46;22.13;101625.38;5103486;27;45311;-68
2023/09/04 09:41:58;;;;;;;;;6.33;6.33;;;;;42.89;20.69;101634.66;5103598;27;46151;-69
2023/09/04 09:44:29;;;;;;;;;5.67;5.67;;;;;43.29;20.94;101619.00;5097559;27;46004;-69
2023/09/04 09:46:54;;;;;;;;;7.33;7.33;;;;;43.24;19.88;101604.34;5097568;27;45578;-70
2023/09/04 09:49:21;;;;;;;;;6.00;6.00;;;;;43.59;20.59;101614.03;5097979;27;45664;-70
2023/09/04 09:51:49;;;;;;;;;6.67;5.67;;;;;43.76;19.71;101612.25;5102355;27;46738;-71
2023/09/04 09:54:17;;;;;;;;;7.33;6.00;;;;;43.18;20.41;101561.78;5097290;27;45363;-72
2023/09/04 09:56:43;;;;;;;;;5.00;5.00;;;;;43.36;20.55;101598.84;5107834;27;45462;-71
2023/09/04 09:59:11;;;;;;;;;7.00;6.00;;;;;43.82;20.57;101605.22;5099496;27;45536;-72
2023/09/04 10:01:39;;;;;;;;;6.00;5.33;;;;;43.43;20.22;101607.47;5107932;27;45832;-72
2023/09/04 10:04:06;;;;;;;;;9.00;6.33;;;;;42.72;21.47;101596.44;5098019;27;45288;-71
2023/09/04 10:06:34;;;;;;;;;7.00;6.00;;;;;41.96;21.94;101583.38;5097379;27;45301;-70
2023/09/04 10:09:01;;;;;;;;;4.00;4.00;;;;;40.65;22.65;101554.09;5103913;27;45507;-71
2023/09/04 10:11:30;;;;;;;;;6.00;6.00;;;;;39.69;24.06;101593.09;5096925;27;46230;-71
2023/09/04 10:14:03;;;;;;;;;8.67;7.33;;;;;38.82;25.58;101589.66;5096746;27;46410;-71
2023/09/04 10:16:32;;;;;;;;;7.33;7.00;;;;;37.80;27.19;101582.63;5107664;27;45480;-76
2023/09/04 10:19:01;;;;;;;;;7.67;6.00;;;;;36.97;27.40;101564.91;5097754;27;45323;-72
2023/09/04 10:21:33;;;;;;;;;8.67;8.00;;;;;36.38;28.81;101563.53;5090987;27;48058;-72
2023/09/04 10:24:05;;;;;;;;;6.67;5.33;;;;;36.06;29.12;101568.91;5098684;27;45920;-73
2023/09/04 10:26:38;;;;;;;;;6.33;6.33;;;;;35.39;29.75;101562.38;5097464;27;45456;-71
2023/09/04 10:29:10;;;;;;;;;6.00;6.00;;;;;34.53;31.48;101561.03;5100195;27;45635;-71
2023/09/04 10:31:37;;;;;;;;;4.33;4.33;;;;;33.83;32.62;101569.25;5096913;27;46567;-71
2023/09/04 10:34:03;;;;;;;;;7.33;7.00;;;;;33.38;33.27;101550.84;5108209;27;45464;-73
2023/09/04 10:36:30;;;;;;;;;6.67;5.33;;;;;32.71;34.16;101510.56;5101192;27;45539;-72
2023/09/04 10:38:57;;;;;;;;;6.00;6.00;;;;;32.28;34.77;101498.91;5100811;27;45388;-73
2023/09/04 10:41:23;;;;;;;;;4.67;4.67;;;;;32.37;35.33;101546.81;5097044;27;47587;-71
2023/09/04 10:43:48;;;;;;;;;6.00;6.00;;;;;31.96;36.34;101545.78;5107018;27;45266;-72
2023/09/04 10:46:14;;;;;;;;;6.67;6.67;;;;;31.66;37.00;101539.00;5106687;27;45415;-70
2023/09/04 10:48:47;;;;;;;;;6.33;5.33;;;;;31.22;37.46;101510.06;5100514;27;45414;-71
2023/09/04 10:51:29;;;;;;;;;8.67;6.00;;;;;31.20;37.64;101528.75;5099740;27;46529;-70
2023/09/04 10:53:56;;;;;;;;;6.67;5.33;;;;;31.07;37.75;101525.34;5096014;27;45386;-70
2023/09/04 10:56:21;;;;;;;;;6.67;6.67;;;;;30.83;38.79;101516.56;5096039;27;45586;-71
2023/09/04 10:59:06;;;;;;;;;6.67;6.67;;;;;30.53;38.80;101517.09;5096703;27;45408;-74
2023/09/04 11:01:35;;;;;;;;;5.00;5.00;;;;;30.35;39.27;101513.84;5096957;27;46725;-70
2023/09/04 11:04:05;;;;;;;;;7.67;6.33;;;;;30.14;39.70;101486.19;5107065;27;45312;-70
2023/09/04 11:06:38;;;;;;;;;5.33;5.00;;;;;30.00;39.67;101449.22;5100632;27;45577;-71
2023/09/04 11:09:04;;;;;;;;;6.00;6.00;;;;;30.13;39.70;101501.00;5097873;27;45479;-70
2023/09/04 11:11:31;;;;;;;;;7.33;7.33;;;;;30.05;40.20;101498.72;5096851;27;46520;-70
2023/09/04 11:13:58;;;;;;;;;7.00;7.00;;;;;29.98;40.39;101498.84;5098317;27;45471;-72
2023/09/04 11:16:27;;;;;;;;;5.50;5.50;;;;;29.81;40.35;101470.66;5101531;27;45438;-69
2023/09/04 11:19:13;;;;;;;;;5.33;5.33;;;;;29.75;41.25;101501.84;5101888;27;45281;-74
2023/09/04 11:21:42;;;;;;;;;6.67;6.67;;;;;29.61;40.85;101497.78;5100709;27;46381;-69